Aérodrome :
LOGIN :

S'inscrire | Disclaimer

   EN    FR    IT 

 










Légende :    VFR   VFR Marginal   IFR   IFR Intensif   IFR Très Intensif
Visi : 
Plafond : 
>= 8 km
>= 3000ft
5 à 8 km
1000 à 3000 ft
1500m à 5 km
500 à 1000 ft
800 à 1500m
200 à 500 ft
< 800m
< 200 ft
Symboles :   Orages  Brouillard  Fortes neiges  Fortes précipitations  Vent > 20 kt
SIGMETs :   Divers  Orages  Givrage  Turbulence  Onde Orograph.  Cendres Volcan.







- Altitude de l'aérodrome : 336 ft
- Code IATA : GCI
- Voir les cartes d'approche


EGJB - Guernsey

DERNIER METAR :
  • 240950Z 23015KT 9999 FEW006 BKN018 17/15 Q1018

METARs EXPIRÉS :
  • 240920Z 23015KT 9999 FEW007 BKN016 16/15 Q1018
  • 240850Z 23014KT 9999 FEW004 BKN006 BKN015 16/15 Q1018
  • 240820Z 23013KT 9999 FEW004 BKN006 16/15 Q1018
  • 240750Z 23015KT 9999 FEW003 SCT005 BKN013 16/15 Q1018
  • 240720Z 24016KT 9999 FEW003 BKN005 16/15 Q1018

TAF TAF EGJB
Valide du 24 à 09h jusqu'au 24 à 18h UTC


240811Z 2409/2418 25015KT 9999 BKN014
TEMPO 2409/2418 5000 -RADZ BKN004
PROB40
TEMPO 2417/2418 1500 BKN001
ATIS : +44 1481 238 957
Pas de NOTAMs connus pour ce terrain.



MET'MAP, la Météo Aéronautique d'un coup d'oeil ! - Copyright ORBIFLY Décembre 2007 - Disclaimer

ORBIFLY MET'MAP TEAM :

Programmation & Développement : Alexandra Zaïnal
Conception & Développement : Baudouin d'Aumeries
Co-Programmation & Développement : Marc-Olivier Méhu
Soutien technique & logistique : Manuel Goepfert

Contact : metmap@orbifly.com




SOURCES & CREDITS :

   NOAA